sensor_id;sensor_type;location;lat;lon;timestamp;pressure;altitude;pressure_sealevel;temperature;humidity
65175;BME280;51761;42.126;24.752;2023-01-29T00:01:12;99800.72;;;4.80;67.08
65175;BME280;51761;42.126;24.752;2023-01-29T00:03:39;99781.59;;;4.64;67.00
65175;BME280;51761;42.126;24.752;2023-01-29T00:06:06;99803.44;;;4.76;66.96
65175;BME280;51761;42.126;24.752;2023-01-29T00:08:36;99805.44;;;4.79;66.80
65175;BME280;51761;42.126;24.752;2023-01-29T00:11:04;99803.03;;;4.74;66.75
65175;BME280;51761;42.126;24.752;2023-01-29T00:13:29;99807.38;;;4.75;66.52
65175;BME280;51761;42.126;24.752;2023-01-29T00:15:56;99802.28;;;4.77;66.31
65175;BME280;51761;42.126;24.752;2023-01-29T00:18:22;99813.38;;;4.81;66.38
65175;BME280;51761;42.126;24.752;2023-01-29T00:20:48;99815.81;;;4.86;66.54
65175;BME280;51761;42.126;24.752;2023-01-29T00:23:14;99811.41;;;4.81;66.85
65175;BME280;51761;42.126;24.752;2023-01-29T00:25:40;99791.13;;;4.70;66.89
65175;BME280;51761;42.126;24.752;2023-01-29T00:28:06;99820.91;;;4.84;66.50
65175;BME280;51761;42.126;24.752;2023-01-29T00:30:32;99825.16;;;4.74;67.04
65175;BME280;51761;42.126;24.752;2023-01-29T00:32:57;99807.66;;;4.63;67.13
65175;BME280;51761;42.126;24.752;2023-01-29T00:35:23;99824.41;;;4.77;66.92
65175;BME280;51761;42.126;24.752;2023-01-29T00:37:48;99802.13;;;4.63;67.06
65175;BME280;51761;42.126;24.752;2023-01-29T00:40:14;99815.25;;;4.70;67.24
65175;BME280;51761;42.126;24.752;2023-01-29T00:42:40;99826.28;;;4.66;66.97
65175;BME280;51761;42.126;24.752;2023-01-29T00:45:24;99829.44;;;4.68;67.19
65175;BME280;51761;42.126;24.752;2023-01-29T00:47:49;99825.47;;;4.66;67.05
65175;BME280;51761;42.126;24.752;2023-01-29T00:50:15;99821.91;;;4.65;67.06
65175;BME280;51761;42.126;24.752;2023-01-29T00:52:40;99802.03;;;4.53;66.87
65175;BME280;51761;42.126;24.752;2023-01-29T00:55:06;99832.94;;;4.62;67.03
65175;BME280;51761;42.126;24.752;2023-01-29T00:57:33;99832.63;;;4.70;66.95
65175;BME280;51761;42.126;24.752;2023-01-29T01:00:00;99837.25;;;4.60;67.13
65175;BME280;51761;42.126;24.752;2023-01-29T01:02:26;99830.50;;;4.57;66.97
65175;BME280;51761;42.126;24.752;2023-01-29T01:05:10;99828.97;;;4.60;67.22
65175;BME280;51761;42.126;24.752;2023-01-29T01:07:39;99827.31;;;4.55;67.53
65175;BME280;51761;42.126;24.752;2023-01-29T01:10:12;99821.03;;;4.58;67.44
65175;BME280;51761;42.126;24.752;2023-01-29T01:12:54;99824.97;;;4.57;67.50
65175;BME280;51761;42.126;24.752;2023-01-29T01:15:21;99831.72;;;4.60;67.70
65175;BME280;51761;42.126;24.752;2023-01-29T01:17:46;99828.13;;;4.56;67.55
65175;BME280;51761;42.126;24.752;2023-01-29T01:20:13;99814.19;;;4.45;67.89
65175;BME280;51761;42.126;24.752;2023-01-29T01:22:39;99836.75;;;4.51;67.81
65175;BME280;51761;42.126;24.752;2023-01-29T01:25:05;99833.22;;;4.54;67.84
65175;BME280;51761;42.126;24.752;2023-01-29T01:27:31;99818.47;;;4.43;67.98
65175;BME280;51761;42.126;24.752;2023-01-29T01:29:59;99812.53;;;4.41;67.92
65175;BME280;51761;42.126;24.752;2023-01-29T01:32:24;99842.38;;;4.58;67.88
65175;BME280;51761;42.126;24.752;2023-01-29T01:34:51;99830.84;;;4.52;68.03
65175;BME280;51761;42.126;24.752;2023-01-29T01:37:16;99835.63;;;4.55;68.04
65175;BME280;51761;42.126;24.752;2023-01-29T01:39:42;99835.22;;;4.53;68.17
65175;BME280;51761;42.126;24.752;2023-01-29T01:42:12;99839.16;;;4.52;68.25
65175;BME280;51761;42.126;24.752;2023-01-29T01:44:55;99838.03;;;4.57;67.99
65175;BME280;51761;42.126;24.752;2023-01-29T01:47:27;99805.75;;;4.35;68.22
65175;BME280;51761;42.126;24.752;2023-01-29T01:49:55;99815.66;;;4.36;68.49
65175;BME280;51761;42.126;24.752;2023-01-29T01:52:24;99831.22;;;4.51;68.40
65175;BME280;51761;42.126;24.752;2023-01-29T01:54:50;99839.44;;;4.44;68.97
65175;BME280;51761;42.126;24.752;2023-01-29T01:57:19;99832.38;;;4.46;68.42
65175;BME280;51761;42.126;24.752;2023-01-29T01:59:55;99819.16;;;4.33;68.55
65175;BME280;51761;42.126;24.752;2023-01-29T02:02:23;99833.63;;;4.52;68.34
65175;BME280;51761;42.126;24.752;2023-01-29T02:05:07;99836.44;;;4.56;68.26
65175;BME280;51761;42.126;24.752;2023-01-29T02:07:51;99842.41;;;4.61;68.40
65175;BME280;51761;42.126;24.752;2023-01-29T02:10:40;99816.91;;;4.42;68.88
65175;BME280;51761;42.126;24.752;2023-01-29T02:13:06;99839.28;;;4.63;68.53
65175;BME280;51761;42.126;24.752;2023-01-29T02:15:32;99837.63;;;4.58;68.41
65175;BME280;51761;42.126;24.752;2023-01-29T02:17:58;99844.50;;;4.71;68.15
65175;BME280;51761;42.126;24.752;2023-01-29T02:20:29;99834.44;;;4.56;68.77
65175;BME280;51761;42.126;24.752;2023-01-29T02:31:34;99857.88;;;4.65;69.28
65175;BME280;51761;42.126;24.752;2023-01-29T02:37:08;99860.16;;;4.60;70.13
65175;BME280;51761;42.126;24.752;2023-01-29T02:39:43;99833.22;;;4.54;69.79
65175;BME280;51761;42.126;24.752;2023-01-29T02:42:48;99857.59;;;4.77;69.64
65175;BME280;51761;42.126;24.752;2023-01-29T02:45:27;99865.84;;;4.70;70.36
65175;BME280;51761;42.126;24.752;2023-01-29T02:47:58;99867.34;;;4.64;70.30
65175;BME280;51761;42.126;24.752;2023-01-29T02:50:42;99867.72;;;4.63;70.80
65175;BME280;51761;42.126;24.752;2023-01-29T02:53:17;99864.28;;;4.73;70.44
65175;BME280;51761;42.126;24.752;2023-01-29T02:55:54;99865.84;;;4.70;70.45
65175;BME280;51761;42.126;24.752;2023-01-29T03:01:02;99865.41;;;4.68;71.04
65175;BME280;51761;42.126;24.752;2023-01-29T03:03:36;99863.13;;;4.77;70.71
65175;BME280;51761;42.126;24.752;2023-01-29T03:08:58;99875.31;;;4.69;70.90
65175;BME280;51761;42.126;24.752;2023-01-29T03:11:31;99869.81;;;4.73;70.60
65175;BME280;51761;42.126;24.752;2023-01-29T03:14:04;99881.25;;;4.71;71.00
65175;BME280;51761;42.126;24.752;2023-01-29T03:16:41;99875.44;;;4.80;70.82
65175;BME280;51761;42.126;24.752;2023-01-29T03:19:18;99886.00;;;4.71;70.93
65175;BME280;51761;42.126;24.752;2023-01-29T03:21:49;99888.00;;;4.74;70.67
65175;BME280;51761;42.126;24.752;2023-01-29T03:27:58;99895.16;;;4.78;70.36
65175;BME280;51761;42.126;24.752;2023-01-29T03:30:54;99895.13;;;4.75;70.45
65175;BME280;51761;42.126;24.752;2023-01-29T03:33:48;99898.69;;;4.75;70.50
65175;BME280;51761;42.126;24.752;2023-01-29T03:36:37;99893.91;;;4.72;70.46
65175;BME280;51761;42.126;24.752;2023-01-29T03:39:10;99890.22;;;4.62;70.31
65175;BME280;51761;42.126;24.752;2023-01-29T03:41:52;99901.00;;;4.70;70.64
65175;BME280;51761;42.126;24.752;2023-01-29T03:44:31;99885.13;;;4.63;70.57
65175;BME280;51761;42.126;24.752;2023-01-29T03:47:07;99903.44;;;4.75;70.54
65175;BME280;51761;42.126;24.752;2023-01-29T03:49:58;99896.53;;;4.62;70.37
65175;BME280;51761;42.126;24.752;2023-01-29T03:52:36;99909.69;;;4.68;70.73
65175;BME280;51761;42.126;24.752;2023-01-29T03:55:18;99912.44;;;4.68;70.39
65175;BME280;51761;42.126;24.752;2023-01-29T03:57:59;99900.75;;;4.49;70.30
65175;BME280;51761;42.126;24.752;2023-01-29T04:00:40;99916.16;;;4.50;70.84
65175;BME280;51761;42.126;24.752;2023-01-29T04:03:21;99916.53;;;4.49;71.06
65175;BME280;51761;42.126;24.752;2023-01-29T04:05:54;99908.53;;;4.40;71.32
65175;BME280;51761;42.126;24.752;2023-01-29T04:08:37;99931.00;;;4.39;71.65
65175;BME280;51761;42.126;24.752;2023-01-29T04:11:09;99921.59;;;4.43;71.85
65175;BME280;51761;42.126;24.752;2023-01-29T04:13:37;99912.75;;;4.31;71.78
65175;BME280;51761;42.126;24.752;2023-01-29T04:16:05;99927.91;;;4.44;71.85
65175;BME280;51761;42.126;24.752;2023-01-29T04:18:32;99931.78;;;4.36;72.40
65175;BME280;51761;42.126;24.752;2023-01-29T04:20:58;99945.59;;;4.36;72.43
65175;BME280;51761;42.126;24.752;2023-01-29T04:23:26;99944.03;;;4.38;72.83
65175;BME280;51761;42.126;24.752;2023-01-29T04:28:39;99932.31;;;4.19;73.50
65175;BME280;51761;42.126;24.752;2023-01-29T04:31:11;99912.25;;;4.25;73.08
65175;BME280;51761;42.126;24.752;2023-01-29T04:34:01;99944.16;;;4.45;73.63
65175;BME280;51761;42.126;24.752;2023-01-29T04:36:58;99947.25;;;4.40;73.24
65175;BME280;51761;42.126;24.752;2023-01-29T04:39:36;99952.72;;;4.37;73.66
65175;BME280;51761;42.126;24.752;2023-01-29T04:50:39;99958.75;;;4.46;73.95
65175;BME280;51761;42.126;24.752;2023-01-29T04:56:11;99957.25;;;4.52;74.05
65175;BME280;51761;42.126;24.752;2023-01-29T04:58:44;99965.94;;;4.50;75.21
65175;BME280;51761;42.126;24.752;2023-01-29T05:01:13;99964.38;;;4.53;74.86
65175;BME280;51761;42.126;24.752;2023-01-29T05:03:43;99971.91;;;4.52;75.49
65175;BME280;51761;42.126;24.752;2023-01-29T05:06:10;99946.25;;;4.26;75.71
65175;BME280;51761;42.126;24.752;2023-01-29T05:08:37;99954.56;;;4.29;75.99
65175;BME280;51761;42.126;24.752;2023-01-29T05:11:05;99974.84;;;4.37;76.32
65175;BME280;51761;42.126;24.752;2023-01-29T05:13:33;99981.69;;;4.46;76.80
65175;BME280;51761;42.126;24.752;2023-01-29T05:18:41;99964.88;;;4.32;77.26
65175;BME280;51761;42.126;24.752;2023-01-29T05:21:07;99964.97;;;4.39;76.83
65175;BME280;51761;42.126;24.752;2023-01-29T05:23:34;99979.03;;;4.53;76.89
65175;BME280;51761;42.126;24.752;2023-01-29T05:25:59;99970.81;;;4.31;77.14
65175;BME280;51761;42.126;24.752;2023-01-29T05:28:25;99979.09;;;4.31;77.35
65175;BME280;51761;42.126;24.752;2023-01-29T05:30:52;99966.13;;;4.35;77.15
65175;BME280;51761;42.126;24.752;2023-01-29T05:33:21;99984.81;;;4.45;77.41
65175;BME280;51761;42.126;24.752;2023-01-29T05:35:47;99980.13;;;4.49;76.72
65175;BME280;51761;42.126;24.752;2023-01-29T05:38:13;99990.03;;;4.50;76.74
65175;BME280;51761;42.126;24.752;2023-01-29T05:40:39;99984.56;;;4.53;76.29
65175;BME280;51761;42.126;24.752;2023-01-29T05:43:05;99990.00;;;4.46;76.17
65175;BME280;51761;42.126;24.752;2023-01-29T05:45:31;99992.38;;;4.48;75.97
65175;BME280;51761;42.126;24.752;2023-01-29T05:47:58;99980.47;;;4.44;75.99
65175;BME280;51761;42.126;24.752;2023-01-29T05:50:25;99992.91;;;4.57;75.90
65175;BME280;51761;42.126;24.752;2023-01-29T05:53:01;99998.72;;;4.52;75.65
65175;BME280;51761;42.126;24.752;2023-01-29T05:55:27;100002.69;;;4.51;75.47
65175;BME280;51761;42.126;24.752;2023-01-29T05:57:56;99989.88;;;4.39;76.10
65175;BME280;51761;42.126;24.752;2023-01-29T06:00:22;100006.75;;;4.57;75.29
65175;BME280;51761;42.126;24.752;2023-01-29T06:02:48;99991.53;;;4.44;75.66
65175;BME280;51761;42.126;24.752;2023-01-29T06:05:13;100013.16;;;4.64;75.07
65175;BME280;51761;42.126;24.752;2023-01-29T06:07:39;100004.84;;;4.64;75.73
65175;BME280;51761;42.126;24.752;2023-01-29T06:10:14;100021.16;;;4.72;74.93
65175;BME280;51761;42.126;24.752;2023-01-29T06:12:41;100022.34;;;4.71;74.66
65175;BME280;51761;42.126;24.752;2023-01-29T06:15:08;99998.03;;;4.55;74.46
65175;BME280;51761;42.126;24.752;2023-01-29T06:17:34;100025.53;;;4.73;74.65
65175;BME280;51761;42.126;24.752;2023-01-29T06:20:00;100013.06;;;4.57;74.56
65175;BME280;51761;42.126;24.752;2023-01-29T06:22:25;100027.41;;;4.66;74.97
65175;BME280;51761;42.126;24.752;2023-01-29T06:24:50;100028.56;;;4.65;75.18
65175;BME280;51761;42.126;24.752;2023-01-29T06:27:16;100042.41;;;4.65;75.16
65175;BME280;51761;42.126;24.752;2023-01-29T06:29:41;100028.13;;;4.60;75.56
65175;BME280;51761;42.126;24.752;2023-01-29T06:32:07;100015.25;;;4.45;75.52
65175;BME280;51761;42.126;24.752;2023-01-29T06:34:32;100040.78;;;4.61;75.80
65175;BME280;51761;42.126;24.752;2023-01-29T06:36:58;100044.72;;;4.60;75.34
65175;BME280;51761;42.126;24.752;2023-01-29T06:39:23;100028.31;;;4.48;75.47
65175;BME280;51761;42.126;24.752;2023-01-29T06:41:49;100030.81;;;4.56;75.10
65175;BME280;51761;42.126;24.752;2023-01-29T06:44:14;100039.22;;;4.63;74.50
65175;BME280;51761;42.126;24.752;2023-01-29T06:46:40;100060.06;;;4.83;74.72
65175;BME280;51761;42.126;24.752;2023-01-29T06:49:05;100062.88;;;4.86;73.79
65175;BME280;51761;42.126;24.752;2023-01-29T06:51:31;100062.56;;;4.91;72.95
65175;BME280;51761;42.126;24.752;2023-01-29T06:53:56;100048.06;;;4.72;73.16
65175;BME280;51761;42.126;24.752;2023-01-29T06:56:22;100028.69;;;4.72;73.32
65175;BME280;51761;42.126;24.752;2023-01-29T06:58:48;100071.34;;;4.97;72.74
65175;BME280;51761;42.126;24.752;2023-01-29T07:01:13;100069.28;;;4.94;72.09
65175;BME280;51761;42.126;24.752;2023-01-29T07:03:39;100072.88;;;4.94;72.25
65175;BME280;51761;42.126;24.752;2023-01-29T07:06:06;100080.91;;;5.03;71.47
65175;BME280;51761;42.126;24.752;2023-01-29T07:08:37;100080.69;;;4.89;71.83
65175;BME280;51761;42.126;24.752;2023-01-29T07:11:03;100063.63;;;4.83;72.03
65175;BME280;51761;42.126;24.752;2023-01-29T07:13:29;100047.31;;;4.75;72.07
65175;BME280;51761;42.126;24.752;2023-01-29T07:15:58;100081.88;;;4.88;72.51
65175;BME280;51761;42.126;24.752;2023-01-29T07:18:24;100083.09;;;4.90;72.51
65175;BME280;51761;42.126;24.752;2023-01-29T07:20:50;100076.25;;;4.81;72.61
65175;BME280;51761;42.126;24.752;2023-01-29T07:23:16;100073.84;;;4.79;73.00
65175;BME280;51761;42.126;24.752;2023-01-29T07:25:42;100070.84;;;4.91;72.98
65175;BME280;51761;42.126;24.752;2023-01-29T07:28:07;100085.03;;;4.86;73.72
65175;BME280;51761;42.126;24.752;2023-01-29T07:30:33;100064.75;;;4.79;74.43
65175;BME280;51761;42.126;24.752;2023-01-29T07:35:28;100074.13;;;4.71;75.01
65175;BME280;51761;42.126;24.752;2023-01-29T07:37:53;100088.47;;;4.80;75.32
65175;BME280;51761;42.126;24.752;2023-01-29T07:40:19;100084.28;;;4.89;75.22
65175;BME280;51761;42.126;24.752;2023-01-29T07:42:44;100088.72;;;4.97;73.90
65175;BME280;51761;42.126;24.752;2023-01-29T07:45:10;100066.41;;;4.83;74.21
65175;BME280;51761;42.126;24.752;2023-01-29T07:47:36;100075.22;;;4.92;74.15
65175;BME280;51761;42.126;24.752;2023-01-29T07:50:02;100077.75;;;5.04;74.43
65175;BME280;51761;42.126;24.752;2023-01-29T07:52:29;100100.25;;;5.32;74.29
65175;BME280;51761;42.126;24.752;2023-01-29T07:54:55;100076.84;;;5.26;73.71
65175;BME280;51761;42.126;24.752;2023-01-29T07:57:21;100078.91;;;5.33;73.69
65175;BME280;51761;42.126;24.752;2023-01-29T07:59:46;100091.75;;;5.48;73.93
65175;BME280;51761;42.126;24.752;2023-01-29T08:02:12;100075.97;;;5.52;73.45
65175;BME280;51761;42.126;24.752;2023-01-29T08:04:37;100107.19;;;5.78;73.39
65175;BME280;51761;42.126;24.752;2023-01-29T08:07:03;100082.66;;;5.47;73.41
65175;BME280;51761;42.126;24.752;2023-01-29T08:09:29;100083.97;;;5.57;73.62
65175;BME280;51761;42.126;24.752;2023-01-29T08:11:55;100107.00;;;5.97;76.27
65175;BME280;51761;42.126;24.752;2023-01-29T08:14:21;100112.16;;;6.42;74.69
65175;BME280;51761;42.126;24.752;2023-01-29T08:16:47;100100.72;;;6.47;71.93
65175;BME280;51761;42.126;24.752;2023-01-29T08:19:13;100112.72;;;6.58;72.80
65175;BME280;51761;42.126;24.752;2023-01-29T08:21:38;100119.28;;;6.90;72.91
65175;BME280;51761;42.126;24.752;2023-01-29T08:24:04;100118.09;;;6.94;73.80
65175;BME280;51761;42.126;24.752;2023-01-29T08:26:30;100082.97;;;6.58;71.03
65175;BME280;51761;42.126;24.752;2023-01-29T08:28:55;100095.84;;;6.33;71.39
65175;BME280;51761;42.126;24.752;2023-01-29T08:31:20;100113.91;;;6.17;72.48
65175;BME280;51761;42.126;24.752;2023-01-29T08:33:46;100112.13;;;6.35;72.30
65175;BME280;51761;42.126;24.752;2023-01-29T08:36:12;100133.91;;;6.33;73.00
65175;BME280;51761;42.126;24.752;2023-01-29T08:38:37;100125.72;;;6.50;71.65
65175;BME280;51761;42.126;24.752;2023-01-29T08:41:03;100114.06;;;6.31;72.22
65175;BME280;51761;42.126;24.752;2023-01-29T08:43:29;100120.94;;;6.08;72.82
65175;BME280;51761;42.126;24.752;2023-01-29T08:45:54;100125.97;;;5.95;73.70
65175;BME280;51761;42.126;24.752;2023-01-29T08:48:20;100119.00;;;5.75;74.28
65175;BME280;51761;42.126;24.752;2023-01-29T08:50:45;100114.03;;;5.58;74.18
65175;BME280;51761;42.126;24.752;2023-01-29T08:53:11;100130.47;;;5.74;74.63
65175;BME280;51761;42.126;24.752;2023-01-29T08:55:39;100123.31;;;5.73;74.63
65175;BME280;51761;42.126;24.752;2023-01-29T08:58:06;100133.16;;;6.00;74.01
65175;BME280;51761;42.126;24.752;2023-01-29T09:00:33;100110.94;;;5.63;74.58
65175;BME280;51761;42.126;24.752;2023-01-29T09:02:59;100130.97;;;5.79;75.27
65175;BME280;51761;42.126;24.752;2023-01-29T09:05:26;100123.47;;;5.83;75.16
65175;BME280;51761;42.126;24.752;2023-01-29T09:07:52;100114.47;;;5.60;74.70
65175;BME280;51761;42.126;24.752;2023-01-29T09:10:18;100115.22;;;5.57;75.18
65175;BME280;51761;42.126;24.752;2023-01-29T09:12:43;100118.47;;;5.66;75.30
65175;BME280;51761;42.126;24.752;2023-01-29T09:15:09;100121.72;;;5.72;75.25
65175;BME280;51761;42.126;24.752;2023-01-29T09:17:35;100130.25;;;5.86;75.15
65175;BME280;51761;42.126;24.752;2023-01-29T09:20:00;100124.81;;;5.96;74.67
65175;BME280;51761;42.126;24.752;2023-01-29T09:22:26;100127.84;;;5.84;74.61
65175;BME280;51761;42.126;24.752;2023-01-29T09:24:51;100128.31;;;5.93;74.95
65175;BME280;51761;42.126;24.752;2023-01-29T09:27:17;100119.03;;;6.12;73.77
65175;BME280;51761;42.126;24.752;2023-01-29T09:29:42;100103.44;;;5.97;73.66
65175;BME280;51761;42.126;24.752;2023-01-29T09:32:08;100125.78;;;6.14;73.61
65175;BME280;51761;42.126;24.752;2023-01-29T09:34:34;100133.03;;;6.25;73.61
65175;BME280;51761;42.126;24.752;2023-01-29T09:36:59;100117.75;;;6.06;73.44
65175;BME280;51761;42.126;24.752;2023-01-29T09:39:25;100126.09;;;6.06;73.78
65175;BME280;51761;42.126;24.752;2023-01-29T09:47:26;100093.22;;;6.08;73.47
65175;BME280;51761;42.126;24.752;2023-01-29T09:49:57;100110.97;;;6.00;72.90
65175;BME280;51761;42.126;24.752;2023-01-29T09:52:34;100085.34;;;5.73;73.79
65175;BME280;51761;42.126;24.752;2023-01-29T09:57:36;100102.31;;;5.72;74.14
65175;BME280;51761;42.126;24.752;2023-01-29T10:00:03;100099.34;;;5.84;74.04
65175;BME280;51761;42.126;24.752;2023-01-29T10:06:04;100106.59;;;5.99;73.04
65175;BME280;51761;42.126;24.752;2023-01-29T10:14:17;100101.09;;;6.02;73.05
65175;BME280;51761;42.126;24.752;2023-01-29T10:17:42;100086.09;;;6.07;72.78
65175;BME280;51761;42.126;24.752;2023-01-29T10:25:20;100094.97;;;6.22;71.84
65175;BME280;51761;42.126;24.752;2023-01-29T10:27:57;100065.69;;;6.25;71.49
65175;BME280;51761;42.126;24.752;2023-01-29T10:30:44;100085.09;;;6.28;71.44
65175;BME280;51761;42.126;24.752;2023-01-29T10:33:15;100076.94;;;6.46;71.10
65175;BME280;51761;42.126;24.752;2023-01-29T10:35:57;100050.03;;;6.53;70.35
65175;BME280;51761;42.126;24.752;2023-01-29T10:41:21;100071.50;;;6.60;69.52
65175;BME280;51761;42.126;24.752;2023-01-29T10:51:59;100053.13;;;7.06;68.34
65175;BME280;51761;42.126;24.752;2023-01-29T10:57:41;100054.41;;;7.22;66.13
65175;BME280;51761;42.126;24.752;2023-01-29T11:02:44;100024.22;;;7.17;66.14
65175;BME280;51761;42.126;24.752;2023-01-29T11:05:36;100036.91;;;7.18;65.73
65175;BME280;51761;42.126;24.752;2023-01-29T11:08:12;100041.75;;;7.32;65.50
65175;BME280;51761;42.126;24.752;2023-01-29T11:10:45;100035.03;;;7.40;65.24
65175;BME280;51761;42.126;24.752;2023-01-29T11:13:15;100030.31;;;7.54;64.54
65175;BME280;51761;42.126;24.752;2023-01-29T11:15:40;100034.66;;;7.45;63.96
65175;BME280;51761;42.126;24.752;2023-01-29T11:18:08;100025.94;;;7.57;64.10
65175;BME280;51761;42.126;24.752;2023-01-29T11:20:42;100035.50;;;7.73;64.01
65175;BME280;51761;42.126;24.752;2023-01-29T11:23:38;100032.72;;;7.66;63.61
65175;BME280;51761;42.126;24.752;2023-01-29T11:26:03;100035.13;;;7.71;63.43
65175;BME280;51761;42.126;24.752;2023-01-29T11:28:37;100030.00;;;8.01;62.63
65175;BME280;51761;42.126;24.752;2023-01-29T11:31:13;100024.06;;;7.95;61.85
65175;BME280;51761;42.126;24.752;2023-01-29T11:33:39;99995.81;;;7.76;62.41
65175;BME280;51761;42.126;24.752;2023-01-29T11:36:25;99988.66;;;7.61;62.11
65175;BME280;51761;42.126;24.752;2023-01-29T11:41:42;100014.06;;;7.63;63.01
65175;BME280;51761;42.126;24.752;2023-01-29T11:44:25;100001.78;;;7.92;62.36
65175;BME280;51761;42.126;24.752;2023-01-29T11:46:52;100006.16;;;8.63;60.89
65175;BME280;51761;42.126;24.752;2023-01-29T11:49:23;100000.13;;;8.96;58.88
65175;BME280;51761;42.126;24.752;2023-01-29T11:51:53;99990.78;;;9.34;57.07
65175;BME280;51761;42.126;24.752;2023-01-29T11:54:22;99987.66;;;9.25;57.13
65175;BME280;51761;42.126;24.752;2023-01-29T11:56:52;99977.09;;;8.81;56.90
65175;BME280;51761;42.126;24.752;2023-01-29T12:01:53;99975.09;;;8.85;57.48
65175;BME280;51761;42.126;24.752;2023-01-29T12:04:21;99972.75;;;8.56;58.29
65175;BME280;51761;42.126;24.752;2023-01-29T12:06:50;99991.06;;;8.53;57.99
65175;BME280;51761;42.126;24.752;2023-01-29T12:09:22;99988.66;;;8.48;58.73
65175;BME280;51761;42.126;24.752;2023-01-29T12:11:49;99964.06;;;8.33;59.26
65175;BME280;51761;42.126;24.752;2023-01-29T12:17:17;99980.72;;;8.15;59.03
65175;BME280;51761;42.126;24.752;2023-01-29T12:22:41;99971.19;;;7.88;59.84
65175;BME280;51761;42.126;24.752;2023-01-29T12:25:21;99951.31;;;7.93;59.07
65175;BME280;51761;42.126;24.752;2023-01-29T12:28:02;99966.81;;;7.77;59.34
65175;BME280;51761;42.126;24.752;2023-01-29T12:35:53;99964.84;;;8.12;59.19
65175;BME280;51761;42.126;24.752;2023-01-29T12:38:22;99956.91;;;8.11;59.25
65175;BME280;51761;42.126;24.752;2023-01-29T12:43:52;99956.88;;;8.42;57.62
65175;BME280;51761;42.126;24.752;2023-01-29T12:46:27;99961.28;;;8.29;57.77
65175;BME280;51761;42.126;24.752;2023-01-29T12:48:56;99960.88;;;8.20;57.70
65175;BME280;51761;42.126;24.752;2023-01-29T12:51:28;99930.28;;;7.89;58.08
65175;BME280;51761;42.126;24.752;2023-01-29T12:56:33;99937.44;;;7.73;58.62
65175;BME280;51761;42.126;24.752;2023-01-29T12:59:08;99953.31;;;7.58;59.48
65175;BME280;51761;42.126;24.752;2023-01-29T13:01:46;99961.63;;;7.58;59.88
65175;BME280;51761;42.126;24.752;2023-01-29T13:04:39;99960.44;;;7.49;60.10
65175;BME280;51761;42.126;24.752;2023-01-29T13:07:13;99962.03;;;7.57;60.19
65175;BME280;51761;42.126;24.752;2023-01-29T13:09:42;99956.91;;;7.66;60.14
65175;BME280;51761;42.126;24.752;2023-01-29T13:12:18;99958.88;;;7.69;59.93
65175;BME280;51761;42.126;24.752;2023-01-29T13:17:22;99936.22;;;7.53;60.50
65175;BME280;51761;42.126;24.752;2023-01-29T13:19:53;99957.28;;;7.64;59.79
65175;BME280;51761;42.126;24.752;2023-01-29T13:22:28;99948.50;;;7.45;60.21
65175;BME280;51761;42.126;24.752;2023-01-29T13:24:56;99944.53;;;7.42;60.16
65175;BME280;51761;42.126;24.752;2023-01-29T13:27:29;99959.25;;;7.64;59.81
65175;BME280;51761;42.126;24.752;2023-01-29T13:29:56;99959.25;;;7.57;59.10
65175;BME280;51761;42.126;24.752;2023-01-29T13:32:29;99958.44;;;7.53;58.70
65175;BME280;51761;42.126;24.752;2023-01-29T13:35:05;99940.19;;;7.38;59.11
65175;BME280;51761;42.126;24.752;2023-01-29T13:37:41;99946.53;;;7.42;58.61
65175;BME280;51761;42.126;24.752;2023-01-29T13:40:20;99967.56;;;7.46;58.12
65175;BME280;51761;42.126;24.752;2023-01-29T13:42:48;99962.41;;;7.48;58.29
65175;BME280;51761;42.126;24.752;2023-01-29T13:45:23;99938.16;;;7.28;58.79
65175;BME280;51761;42.126;24.752;2023-01-29T13:47:50;99960.03;;;7.50;58.14
65175;BME280;51761;42.126;24.752;2023-01-29T13:50:35;99959.25;;;7.57;58.22
65175;BME280;51761;42.126;24.752;2023-01-29T13:53:04;99955.28;;;7.65;58.68
65175;BME280;51761;42.126;24.752;2023-01-29T13:55:38;99962.44;;;7.55;59.49
65175;BME280;51761;42.126;24.752;2023-01-29T14:01:00;99960.03;;;7.50;59.59
65175;BME280;51761;42.126;24.752;2023-01-29T14:06:03;99961.22;;;7.49;59.34
65175;BME280;51761;42.126;24.752;2023-01-29T14:13:38;99945.75;;;7.45;58.18
65175;BME280;51761;42.126;24.752;2023-01-29T14:18:30;99949.72;;;7.61;58.16
65175;BME280;51761;42.126;24.752;2023-01-29T14:24:08;99957.25;;;7.50;57.90
65175;BME280;51761;42.126;24.752;2023-01-29T14:31:38;99971.16;;;7.54;58.43
65175;BME280;51761;42.126;24.752;2023-01-29T14:34:12;99978.28;;;7.48;58.60
65175;BME280;51761;42.126;24.752;2023-01-29T14:36:41;99959.16;;;7.22;59.24
65175;BME280;51761;42.126;24.752;2023-01-29T14:39:19;99977.47;;;7.33;59.03
65175;BME280;51761;42.126;24.752;2023-01-29T14:41:46;99989.75;;;7.32;59.15
65175;BME280;51761;42.126;24.752;2023-01-29T14:44:46;99988.94;;;7.25;59.86
65175;BME280;51761;42.126;24.752;2023-01-29T14:47:17;99989.69;;;7.18;59.92
65175;BME280;51761;42.126;24.752;2023-01-29T14:52:43;99971.78;;;7.02;59.88
65175;BME280;51761;42.126;24.752;2023-01-29T14:55:22;99970.59;;;6.99;60.27
65175;BME280;51761;42.126;24.752;2023-01-29T14:57:51;99990.09;;;7.17;60.45
65175;BME280;51761;42.126;24.752;2023-01-29T15:00:25;99992.88;;;7.20;60.53
65175;BME280;51761;42.126;24.752;2023-01-29T15:02:52;99988.50;;;7.19;60.80
65175;BME280;51761;42.126;24.752;2023-01-29T15:05:20;99998.84;;;7.22;60.98
65175;BME280;51761;42.126;24.752;2023-01-29T15:07:52;99964.25;;;6.99;61.42
65175;BME280;51761;42.126;24.752;2023-01-29T15:10:37;99996.47;;;7.21;61.24
65175;BME280;51761;42.126;24.752;2023-01-29T15:15:41;99996.03;;;7.08;61.84
65175;BME280;51761;42.126;24.752;2023-01-29T15:18:14;99996.00;;;7.05;62.07
65175;BME280;51761;42.126;24.752;2023-01-29T15:20:42;100009.47;;;7.03;61.94
65175;BME280;51761;42.126;24.752;2023-01-29T15:23:40;100004.69;;;6.93;62.27